Time;durP1;ratioP1;P1;durP2;ratioP2;P2;SDS_P1;SDS_P2;PMS_P1;PMS_P2;Temp;Humidity;BMP_temperature;BMP_pressure;BME280_temperature;BME280_humidity;BME280_pressure;Samples;Min_cycle;Max_cycle;Signal;HPM_P1;HPM_P2
2021/03/11 00:01:15;;;;;;;22.03;10.97;;;;;;;-5.18;64.86;95883.09;1725666;83;22403;-68
2021/03/11 00:03:44;;;;;;;20.97;10.30;;;;;;;-5.32;65.00;95881.16;1725430;83;21673;-68
2021/03/11 00:06:11;;;;;;;21.43;10.30;;;;;;;-5.25;65.58;95875.91;1725476;83;21852;-68
2021/03/11 00:08:39;;;;;;;26.73;10.90;;;;;;;-5.33;66.42;95883.27;1725749;83;22438;-68
2021/03/11 00:11:07;;;;;;;21.40;11.97;;;;;;;-5.33;66.36;95876.84;1725698;83;21984;-68
2021/03/11 00:13:34;;;;;;;21.10;9.83;;;;;;;-5.42;66.29;95876.40;1725560;83;21967;-68
2021/03/11 00:16:03;;;;;;;20.47;10.93;;;;;;;-5.49;66.16;95876.95;1725535;83;22022;-68
2021/03/11 00:18:31;;;;;;;25.43;11.97;;;;;;;-5.55;67.73;95886.92;1725429;83;21848;-68
2021/03/11 00:20:58;;;;;;;27.07;11.80;;;;;;;-5.57;66.71;95882.11;1725598;82;22424;-68
2021/03/11 00:23:28;;;;;;;22.47;11.67;;;;;;;-5.43;66.10;95878.51;1725392;82;21832;-68
2021/03/11 00:25:55;;;;;;;21.20;11.23;;;;;;;-5.43;66.10;95878.51;1725503;82;21814;-68
2021/03/11 00:28:23;;;;;;;27.60;13.93;;;;;;;-5.66;67.50;95886.02;1725411;83;22414;-68
2021/03/11 00:30:51;;;;;;;32.00;15.50;;;;;;;-5.66;67.50;95886.02;1725769;83;21692;-68
2021/03/11 00:33:19;;;;;;;30.70;14.67;;;;;;;-5.82;66.85;95886.48;1725669;83;21981;-68
2021/03/11 00:35:47;;;;;;;28.77;11.47;;;;;;;-6.07;68.62;95892.14;1725779;83;21863;-68
2021/03/11 00:38:15;;;;;;;29.80;14.17;;;;;;;-6.09;68.68;95888.23;1725444;83;21607;-68
2021/03/11 00:40:43;;;;;;;28.87;13.00;;;;;;;-6.09;68.68;95888.23;1725718;83;21804;-68
2021/03/11 00:43:13;;;;;;;20.10;10.37;;;;;;;-6.01;68.93;95879.62;1725515;83;22322;-69
2021/03/11 00:45:46;;;;;;;20.67;10.13;;;;;;;-6.06;69.09;95886.22;1725499;82;21882;-68
2021/03/11 00:48:11;;;;;;;23.73;12.00;;;;;;;-6.06;69.09;95886.22;1715772;83;21653;-68
2021/03/11 00:50:40;;;;;;;20.40;10.03;;;;;;;-6.09;68.92;95881.81;1725644;83;21888;-68
2021/03/11 00:53:08;;;;;;;28.47;13.33;;;;;;;-6.09;68.92;95881.81;1725481;83;22310;-68
2021/03/11 00:55:36;;;;;;;25.90;13.73;;;;;;;-6.14;68.57;95885.43;1725726;83;21777;-68
2021/03/11 00:58:04;;;;;;;24.27;11.70;;;;;;;-6.14;68.57;95885.43;1730906;82;21642;-68
2021/03/11 01:00:31;;;;;;;24.20;10.80;;;;;;;-6.07;68.81;95889.57;1730839;82;21644;-68
2021/03/11 01:03:01;;;;;;;29.40;12.77;;;;;;;-5.97;68.25;95873.42;1730567;82;21622;-68
2021/03/11 01:05:33;;;;;;;17.50;8.27;;;;;;;-5.97;68.40;95877.28;1730875;82;22029;-68
2021/03/11 01:08:04;;;;;;;31.37;15.40;;;;;;;-6.36;69.94;95881.31;1730670;82;21570;-68
2021/03/11 01:10:35;;;;;;;30.40;15.67;;;;;;;-6.47;69.52;95879.91;1730898;83;21675;-68
2021/03/11 01:13:04;;;;;;;47.27;19.60;;;;;;;-6.54;70.43;95882.14;1731116;82;22074;-68
2021/03/11 01:15:41;;;;;;;50.83;20.43;;;;;;;-6.54;70.43;95882.14;1730729;83;21690;-68
2021/03/11 01:18:12;;;;;;;16.70;8.47;;;;;;;-6.62;70.20;95883.45;1730995;82;21949;-68
2021/03/11 01:20:41;;;;;;;21.10;9.33;;;;;;;-6.62;70.20;95883.45;1715864;84;22079;-68
2021/03/11 01:23:08;;;;;;;19.20;9.13;;;;;;;-6.61;69.84;95885.60;1730985;83;21648;-68
2021/03/11 01:25:36;;;;;;;20.77;8.53;;;;;;;-6.60;69.88;95883.50;1731360;83;21570;-68
2021/03/11 01:28:04;;;;;;;17.90;10.00;;;;;;;-6.59;70.87;95874.61;1730711;83;21569;-68
2021/03/11 01:30:31;;;;;;;17.47;8.90;;;;;;;-6.59;70.87;95874.61;1731069;82;21543;-68
2021/03/11 01:32:59;;;;;;;23.73;10.40;;;;;;;-6.55;70.14;95873.98;1715984;84;21647;-68
2021/03/11 01:35:28;;;;;;;16.90;8.23;;;;;;;-6.55;70.14;95873.98;1730850;82;21607;-68
2021/03/11 01:37:56;;;;;;;20.93;10.87;;;;;;;-6.35;69.77;95875.36;1730853;83;21584;-68
2021/03/11 01:40:24;;;;;;;18.00;9.80;;;;;;;-6.35;69.20;95872.41;1731071;83;21570;-68
2021/03/11 01:42:51;;;;;;;22.87;10.33;;;;;;;-6.30;69.30;95866.20;1731072;82;21642;-68
2021/03/11 01:45:21;;;;;;;24.83;11.70;;;;;;;-6.30;69.30;95866.20;1730804;82;21564;-68
2021/03/11 01:47:49;;;;;;;20.57;11.10;;;;;;;-6.18;68.79;95871.08;1731035;83;21577;-68
2021/03/11 01:50:18;;;;;;;20.13;10.37;;;;;;;-6.16;68.77;95869.06;1731118;82;21551;-68
2021/03/11 01:52:46;;;;;;;31.23;13.33;;;;;;;-6.25;68.37;95862.58;1730920;82;21509;-68
2021/03/11 01:55:15;;;;;;;33.87;12.83;;;;;;;-6.41;69.48;95866.08;1712706;83;21552;-68
2021/03/11 01:57:44;;;;;;;28.17;11.57;;;;;;;-6.66;69.96;95864.83;1727082;82;21605;-68
2021/03/11 02:00:14;;;;;;;18.93;10.23;;;;;;;-6.66;69.96;95864.83;1725453;82;22026;-68
2021/03/11 02:02:43;;;;;;;19.60;10.07;;;;;;;-6.56;69.50;95857.20;1725472;82;21530;-68
2021/03/11 02:05:15;;;;;;;17.90;8.80;;;;;;;-6.53;68.97;95856.06;1725557;83;21583;-68
2021/03/11 02:07:44;;;;;;;22.07;8.00;;;;;;;-6.52;68.37;95862.98;1725742;83;21637;-68
2021/03/11 02:10:19;;;;;;;20.53;9.90;;;;;;;-6.56;68.39;95861.05;1725541;83;21469;-68
2021/03/11 02:13:04;;;;;;;19.50;9.23;;;;;;;-6.69;69.16;95858.27;1725687;82;21759;-68
2021/03/11 02:15:46;;;;;;;15.77;9.00;;;;;;;-6.69;69.77;95851.86;1725460;83;21551;-68
2021/03/11 02:18:22;;;;;;;20.20;9.90;;;;;;;-6.70;69.85;95850.48;1725647;82;21535;-68
2021/03/11 02:21:04;;;;;;;18.60;9.10;;;;;;;-6.75;69.38;95848.58;1725606;82;21558;-68
2021/03/11 02:24:13;;;;;;;27.63;12.67;;;;;;;-6.75;69.38;95848.58;1725584;83;21514;-68
2021/03/11 02:27:15;;;;;;;17.87;8.83;;;;;;;-6.72;69.85;95862.37;1725584;83;21425;-68
2021/03/11 02:29:45;;;;;;;15.73;6.80;;;;;;;-6.62;69.51;95864.61;1725570;83;21567;-68
2021/03/11 02:32:15;;;;;;;13.70;8.10;;;;;;;-6.72;69.25;95870.08;1725544;82;21438;-68
2021/03/11 02:34:47;;;;;;;15.53;8.20;;;;;;;-6.85;69.02;95870.72;1725869;83;21866;-68
2021/03/11 02:37:29;;;;;;;18.03;8.37;;;;;;;-6.73;69.03;95869.17;1725658;82;21444;-68
2021/03/11 02:40:16;;;;;;;13.30;7.53;;;;;;;-6.65;68.18;95861.48;1725521;83;21475;-68
2021/03/11 02:42:45;;;;;;;16.57;8.60;;;;;;;-6.65;68.18;95861.48;1715351;83;21517;-68
2021/03/11 02:45:18;;;;;;;16.80;8.53;;;;;;;-6.74;68.21;95863.56;1725608;83;21452;-68
2021/03/11 02:47:46;;;;;;;15.32;7.95;;;;;;;-6.72;68.53;95873.52;1725538;82;21455;-68
2021/03/11 02:50:15;;;;;;;21.57;8.80;;;;;;;-6.72;68.37;95886.34;1715724;83;21134;-68
2021/03/11 02:52:43;;;;;;;22.13;9.30;;;;;;;-6.80;68.85;95884.67;1725831;83;21413;-68
2021/03/11 02:55:14;;;;;;;12.00;6.20;;;;;;;-6.99;69.75;95882.81;1725315;82;21362;-68
2021/03/11 02:57:43;;;;;;;30.50;12.63;;;;;;;-7.03;69.04;95888.59;1725583;82;21647;-68
2021/03/11 03:00:13;;;;;;;41.60;18.20;;;;;;;-7.24;70.39;95896.01;1715480;83;21537;-67
2021/03/11 03:02:42;;;;;;;15.37;8.33;;;;;;;-7.32;69.75;95894.72;1725489;83;21458;-68
2021/03/11 03:05:15;;;;;;;15.67;7.57;;;;;;;-7.27;69.45;95893.70;1725665;82;21479;-68
2021/03/11 03:07:47;;;;;;;14.07;7.17;;;;;;;-7.20;69.44;95898.36;1725448;82;21375;-68
2021/03/11 03:10:22;;;;;;;17.57;8.30;;;;;;;-7.12;69.74;95900.92;1725759;82;21733;-68
2021/03/11 03:12:53;;;;;;;13.47;7.23;;;;;;;-6.96;69.14;95902.20;1725391;82;21327;-69
2021/03/11 03:15:22;;;;;;;13.73;6.33;;;;;;;-6.83;68.37;95902.48;1725680;83;21592;-68
2021/03/11 03:17:52;;;;;;;14.23;7.23;;;;;;;-6.88;68.27;95907.77;1725569;83;21474;-68
2021/03/11 03:20:24;;;;;;;20.27;9.40;;;;;;;-7.03;68.18;95904.36;1725766;83;21579;-68
2021/03/11 03:22:53;;;;;;;11.40;6.60;;;;;;;-7.22;68.17;95900.83;1725792;83;21610;-68
2021/03/11 03:25:23;;;;;;;14.33;7.03;;;;;;;-7.27;68.21;95898.83;1724607;82;21363;-68
2021/03/11 03:27:51;;;;;;;12.70;6.60;;;;;;;-7.20;68.46;95899.23;1725618;83;21589;-68
2021/03/11 03:30:20;;;;;;;12.80;6.73;;;;;;;-7.13;68.84;95903.02;1725701;82;21449;-68
2021/03/11 03:32:48;;;;;;;12.27;6.43;;;;;;;-7.20;68.71;95901.80;1725623;83;21940;-68
2021/03/11 03:35:22;;;;;;;14.67;7.90;;;;;;;-7.15;69.11;95905.02;1725736;83;21455;-68
2021/03/11 03:37:52;;;;;;;14.23;6.17;;;;;;;-7.23;69.44;95909.70;1725705;83;21450;-68
2021/03/11 03:40:23;;;;;;;28.33;13.03;;;;;;;-7.27;68.83;95906.52;1725736;83;21724;-68
2021/03/11 03:42:56;;;;;;;29.43;11.40;;;;;;;-7.42;69.64;95906.16;1725833;83;21570;-68
2021/03/11 03:45:31;;;;;;;12.28;6.17;;;;;;;-7.42;69.52;95911.28;1725595;82;21843;-67
2021/03/11 03:48:02;;;;;;;15.57;7.03;;;;;;;-7.32;69.15;95911.39;1725407;82;21151;-68
2021/03/11 03:50:31;;;;;;;13.67;7.50;;;;;;;-7.32;68.66;95916.52;1725543;83;21363;-68
2021/03/11 03:53:04;;;;;;;15.57;7.47;;;;;;;-7.18;68.63;95909.58;1725707;83;21525;-68
2021/03/11 03:55:33;;;;;;;11.48;5.60;;;;;;;-7.17;68.00;95911.33;1725498;83;21354;-68
2021/03/11 03:58:01;;;;;;;11.27;6.43;;;;;;;-7.17;67.73;95911.74;1723582;82;21187;-68
2021/03/11 04:00:29;;;;;;;12.73;6.37;;;;;;;-7.36;68.09;95904.31;1702064;84;21821;-68
2021/03/11 04:03:00;;;;;;;18.00;6.97;;;;;;;-7.51;68.76;95904.39;1677691;85;21323;-68
2021/03/11 04:05:29;;;;;;;10.97;6.87;;;;;;;-7.56;68.19;95913.47;1685432;85;21458;-68
2021/03/11 04:07:58;;;;;;;13.90;7.10;;;;;;;-7.45;68.49;95908.96;1684210;84;21426;-67
2021/03/11 04:10:26;;;;;;;13.77;6.60;;;;;;;-7.40;68.09;95917.78;1693431;85;21774;-68
2021/03/11 04:12:55;;;;;;;10.93;4.67;;;;;;;-7.40;68.23;95927.63;1693568;85;21394;-68
2021/03/11 04:15:23;;;;;;;17.00;7.40;;;;;;;-7.54;68.98;95941.36;1693328;84;21303;-68
2021/03/11 04:17:52;;;;;;;15.93;6.00;;;;;;;-7.71;68.66;95936.59;1693676;85;21921;-68
2021/03/11 04:20:21;;;;;;;13.13;6.57;;;;;;;-7.68;68.82;95941.89;1693761;85;21623;-68
2021/03/11 04:22:49;;;;;;;14.27;5.83;;;;;;;-7.76;69.31;95944.42;1693538;84;21796;-68
2021/03/11 04:25:17;;;;;;;12.87;7.23;;;;;;;-7.77;68.93;95940.08;1693536;85;21486;-68
2021/03/11 04:27:45;;;;;;;16.33;8.07;;;;;;;-7.70;69.11;95950.28;1693646;84;21468;-68
2021/03/11 04:30:14;;;;;;;15.57;6.93;;;;;;;-7.81;69.87;95950.05;1693986;85;21415;-68
2021/03/11 04:32:42;;;;;;;15.23;6.93;;;;;;;-7.75;69.09;95949.14;1693837;84;21551;-68
2021/03/11 04:35:11;;;;;;;14.83;6.90;;;;;;;-7.62;69.12;95934.52;1693651;85;21282;-68
2021/03/11 04:37:40;;;;;;;12.90;6.77;;;;;;;-7.65;68.57;95950.14;1668067;85;21317;-68
2021/03/11 04:40:09;;;;;;;12.87;6.53;;;;;;;-7.70;68.84;95949.88;1693835;85;21452;-68
2021/03/11 04:42:37;;;;;;;14.70;6.50;;;;;;;-7.76;68.79;95948.63;1693735;84;21430;-68
2021/03/11 04:45:08;;;;;;;11.97;7.20;;;;;;;-7.73;68.72;95959.96;1693401;84;21432;-68
2021/03/11 04:47:38;;;;;;;12.57;6.50;;;;;;;-7.58;68.79;95956.47;1693581;85;21920;-68
2021/03/11 04:50:08;;;;;;;12.03;6.03;;;;;;;-7.53;68.54;95946.98;1693533;85;21421;-68
2021/03/11 04:52:37;;;;;;;13.90;6.80;;;;;;;-7.56;68.08;95963.45;1693445;85;21375;-68
2021/03/11 04:55:06;;;;;;;18.93;7.90;;;;;;;-7.63;67.75;95960.09;1693563;84;21404;-68
2021/03/11 04:57:34;;;;;;;12.83;6.90;;;;;;;-7.54;68.03;95958.42;1689040;85;21363;-68
2021/03/11 05:00:05;;;;;;;13.63;6.80;;;;;;;-7.62;68.22;95965.27;1676277;86;21419;-68
2021/03/11 05:02:34;;;;;;;16.53;6.87;;;;;;;-7.66;68.96;95958.23;1676463;86;21626;-67
2021/03/11 05:05:07;;;;;;;12.87;6.03;;;;;;;-7.72;68.70;95960.84;1715486;83;21892;-68
2021/03/11 05:07:34;;;;;;;5.63;3.10;;;;;;;-7.67;68.37;95958.13;1715474;83;21807;-67
2021/03/11 05:10:03;;;;;;;9.03;5.53;;;;;;;-7.61;68.04;95955.90;1725468;83;21428;-68
2021/03/11 05:12:31;;;;;;;8.30;4.80;;;;;;;-7.60;67.88;95960.66;1725581;82;21350;-68
2021/03/11 05:14:58;;;;;;;11.63;5.80;;;;;;;-7.63;67.95;95966.08;1725409;82;21559;-69
2021/03/11 05:17:26;;;;;;;7.23;4.17;;;;;;;-7.72;67.82;95971.08;1725751;82;21471;-68
2021/03/11 05:19:54;;;;;;;8.73;5.60;;;;;;;-7.58;67.93;95966.72;1725474;83;21896;-67
2021/03/11 05:22:22;;;;;;;17.63;7.60;;;;;;;-7.65;68.27;95964.23;1725693;83;21912;-68
2021/03/11 05:24:50;;;;;;;26.97;10.30;;;;;;;-7.75;68.10;95970.91;1725756;82;21591;-68
2021/03/11 05:27:19;;;;;;;29.13;10.10;;;;;;;-7.82;68.79;95972.64;1725634;82;21357;-68
2021/03/11 05:29:47;;;;;;;13.20;6.37;;;;;;;-7.83;68.90;95975.60;1725479;83;21340;-68
2021/03/11 05:32:15;;;;;;;14.90;6.77;;;;;;;-7.85;69.70;95974.22;1725387;82;21371;-68
2021/03/11 05:34:45;;;;;;;14.93;6.70;;;;;;;-7.82;69.73;95974.80;1725528;82;21857;-68
2021/03/11 05:37:14;;;;;;;27.97;11.93;;;;;;;-7.80;70.71;95968.49;1725864;82;21448;-68
2021/03/11 05:39:41;;;;;;;62.37;27.67;;;;;;;-7.66;71.01;95972.70;1725730;83;21442;-68
2021/03/11 05:42:11;;;;;;;56.13;22.77;;;;;;;-7.45;71.02;95976.88;1725531;83;21532;-68
2021/03/11 05:44:39;;;;;;;44.43;20.10;;;;;;;-7.26;70.60;95985.17;1725617;83;21425;-68
2021/03/11 05:47:08;;;;;;;47.70;20.63;;;;;;;-7.16;70.70;95984.88;1715345;83;21397;-70
2021/03/11 05:49:35;;;;;;;48.00;21.70;;;;;;;-7.08;70.89;95981.45;1725783;83;21475;-69
2021/03/11 05:52:04;;;;;;;51.37;23.93;;;;;;;-6.93;70.57;95986.13;1725859;83;21961;-69
2021/03/11 05:54:33;;;;;;;54.83;25.57;;;;;;;-6.73;69.98;95987.20;1725521;83;21329;-64
2021/03/11 05:57:02;;;;;;;57.80;26.30;;;;;;;-6.55;69.51;95986.04;1725777;83;21413;-68
2021/03/11 05:59:31;;;;;;;43.67;20.03;;;;;;;-6.44;69.19;95984.90;1725722;82;21423;-68
2021/03/11 06:02:06;;;;;;;40.63;18.87;;;;;;;-6.20;68.91;95990.44;1725504;83;22012;-68
2021/03/11 06:04:35;;;;;;;33.73;17.63;;;;;;;-6.05;68.10;95992.87;1725717;82;21579;-69
2021/03/11 06:07:05;;;;;;;40.20;18.77;;;;;;;-5.92;67.57;95990.49;1725679;82;22062;-69
2021/03/11 06:09:33;;;;;;;37.87;18.30;;;;;;;-5.94;67.98;95990.88;1725706;83;21486;-69
2021/03/11 06:12:04;;;;;;;41.53;17.97;;;;;;;-5.90;68.34;96000.45;1725628;83;21504;-69
2021/03/11 06:14:36;;;;;;;32.90;16.30;;;;;;;-5.76;67.85;95994.33;1725820;83;22144;-70
2021/03/11 06:17:08;;;;;;;26.60;14.10;;;;;;;-5.59;67.53;95997.74;1725523;82;22126;-68
2021/03/11 06:19:36;;;;;;;29.00;13.80;;;;;;;-5.50;67.07;95995.59;1725718;83;21529;-82
2021/03/11 06:22:04;;;;;;;36.07;19.57;;;;;;;-5.34;66.19;95998.91;1725587;83;21159;-71
2021/03/11 06:24:32;;;;;;;30.40;14.40;;;;;;;-5.16;65.64;95989.53;1715626;83;21586;-68
2021/03/11 06:27:01;;;;;;;35.40;15.60;;;;;;;-4.81;65.26;95992.87;1715368;83;21596;-70
2021/03/11 06:29:37;;;;;;;33.23;14.80;;;;;;;-4.81;65.26;95992.87;1725659;83;22415;-72
2021/03/11 06:32:07;;;;;;;29.47;13.60;;;;;;;-4.66;64.91;96000.02;1725771;82;21837;-75
2021/03/11 06:34:39;;;;;;;25.10;13.03;;;;;;;-4.47;64.55;95986.68;1725826;83;21997;-67
2021/03/11 06:37:07;;;;;;;25.82;12.13;;;;;;;-4.42;64.73;95993.80;1725660;82;21650;-73
2021/03/11 06:39:40;;;;;;;24.73;12.97;;;;;;;-4.35;64.65;95996.25;1725751;83;21277;-71
2021/03/11 06:42:09;;;;;;;27.20;15.23;;;;;;;-4.16;64.26;95994.97;1725807;83;21879;-85
2021/03/11 06:44:43;;;;;;;29.93;13.27;;;;;;;-3.97;63.79;95995.77;1725817;83;21159;-73
2021/03/11 06:47:14;;;;;;;27.50;13.53;;;;;;;-3.90;63.53;96006.81;1725467;83;21839;-76
2021/03/11 06:50:00;;;;;;;24.30;12.85;;;;;;;-3.68;63.43;96001.27;1725746;82;21848;-71
2021/03/11 06:52:29;;;;;;;27.85;13.90;;;;;;;-3.46;62.57;96006.51;1725554;82;21143;-67
2021/03/11 06:55:05;;;;;;;152.67;56.97;;;;;;;-3.34;62.48;96010.89;1725751;83;21705;-75
2021/03/11 06:57:39;;;;;;;117.17;46.23;;;;;;;-3.17;62.09;96018.04;1725627;82;21857;-71
2021/03/11 07:00:17;;;;;;;212.53;78.53;;;;;;;-2.81;60.84;96010.41;1731459;82;21975;-76
2021/03/11 07:02:58;;;;;;;543.53;222.87;;;;;;;-2.81;60.84;96010.41;1731073;82;21159;-70
2021/03/11 07:05:28;;;;;;;54.03;24.83;;;;;;;-2.68;60.40;96008.34;1731169;83;21854;-73
2021/03/11 07:08:16;;;;;;;73.23;34.30;;;;;;;-2.55;60.24;96004.53;1731291;82;21158;-76
2021/03/11 07:10:47;;;;;;;35.50;17.13;;;;;;;-2.40;60.45;95977.97;1731384;83;21966;-69
2021/03/11 07:13:15;;;;;;;243.60;112.00;;;;;;;-2.27;59.49;95999.10;1731129;82;21561;-77
2021/03/11 07:15:42;;;;;;;64.50;33.30;;;;;;;-2.07;59.95;96009.76;1730949;82;21179;-71
2021/03/11 07:18:24;;;;;;;29.03;16.03;;;;;;;-1.91;59.15;96006.46;1731079;82;21155;-69
2021/03/11 07:20:52;;;;;;;141.20;68.80;;;;;;;-1.71;59.14;96002.87;1731010;82;21147;-67
2021/03/11 07:23:20;;;;;;;56.30;24.97;;;;;;;-1.54;58.32;95998.25;1731126;83;21557;-69
2021/03/11 07:25:48;;;;;;;33.63;16.43;;;;;;;-1.46;57.50;96000.71;1730828;82;21598;-71
2021/03/11 07:28:29;;;;;;;31.23;15.97;;;;;;;-1.27;57.19;95994.84;1715859;83;21729;-66
2021/03/11 07:31:00;;;;;;;21.73;12.23;;;;;;;-1.05;57.72;95997.31;1730637;82;21162;-75
2021/03/11 07:33:32;;;;;;;18.50;10.93;;;;;;;-0.81;56.35;95997.20;1731002;82;21598;-69
2021/03/11 07:36:06;;;;;;;32.85;19.42;;;;;;;-0.73;54.01;96003.91;1738691;80;21110;-70
2021/03/11 07:38:35;;;;;;;18.67;10.33;;;;;;;-0.70;54.01;95995.84;1748007;82;21584;-70
2021/03/11 07:41:06;;;;;;;22.00;11.77;;;;;;;-0.53;54.70;96002.84;1748241;82;21181;-68
2021/03/11 07:43:34;;;;;;;22.87;12.03;;;;;;;-0.38;52.04;95997.64;1748205;82;21161;-75
2021/03/11 07:46:05;;;;;;;24.27;12.40;;;;;;;-0.35;52.47;96008.09;1748101;81;21189;-68
2021/03/11 07:48:34;;;;;;;210.23;66.87;;;;;;;-0.16;53.46;96004.34;1748009;81;21130;-80
2021/03/11 07:51:04;;;;;;;57.93;20.57;;;;;;;0.07;52.52;96003.70;1748107;82;21178;-71
2021/03/11 07:53:31;;;;;;;49.70;19.30;;;;;;;0.18;48.68;95997.11;1748319;82;21142;-70
2021/03/11 07:56:00;;;;;;;30.43;12.43;;;;;;;0.30;48.78;95990.93;1747631;82;21606;-71
2021/03/11 07:58:30;;;;;;;49.73;19.00;;;;;;;0.36;46.44;95991.55;1742096;82;21142;-70
2021/03/11 08:01:04;;;;;;;43.10;16.63;;;;;;;0.53;48.10;96002.35;1739931;82;21283;-70
2021/03/11 08:03:35;;;;;;;12.83;6.57;;;;;;;0.63;47.22;95989.67;1740201;82;21292;-69
2021/03/11 08:06:25;;;;;;;9.77;4.90;;;;;;;0.76;42.97;95992.16;1730782;81;22428;-67
2021/03/11 08:08:54;;;;;;;20.47;9.33;;;;;;;0.92;43.99;95977.83;1776141;81;21288;-74
2021/03/11 08:11:39;;;;;;;16.30;7.87;;;;;;;1.28;44.75;95988.64;1700291;84;21185;-70
2021/03/11 08:14:23;;;;;;;10.80;6.20;;;;;;;1.33;41.16;95990.92;1776498;81;21691;-76
2021/03/11 08:16:53;;;;;;;13.90;7.90;;;;;;;1.54;41.29;95992.26;1775895;80;21145;-72
2021/03/11 08:19:42;;;;;;;15.90;7.90;;;;;;;1.76;41.69;95991.02;1776133;80;21134;-73
2021/03/11 08:22:10;;;;;;;10.27;5.30;;;;;;;1.89;40.76;95986.13;1776229;80;21286;-66
2021/03/11 08:24:48;;;;;;;144.13;52.77;;;;;;;1.99;38.87;95993.70;1776284;80;21153;-75
2021/03/11 08:27:39;;;;;;;8.40;4.40;;;;;;;2.10;40.31;95992.19;1776288;80;21264;-73
2021/03/11 08:30:12;;;;;;;100.00;35.30;;;;;;;2.14;37.77;95979.70;1700216;84;21150;-66
2021/03/11 08:32:50;;;;;;;11.90;6.63;;;;;;;2.34;39.71;95983.09;1768969;81;21157;-69
2021/03/11 08:35:44;;;;;;;156.13;60.47;;;;;;;2.54;37.04;95976.97;1751773;81;21270;-73
2021/03/11 08:38:33;;;;;;;20.23;12.28;;;;;;;2.53;37.70;95976.53;1745357;82;21575;-68
2021/03/11 08:41:11;;;;;;;55.17;25.73;;;;;;;2.57;35.90;95975.71;1745541;81;21141;-74
2021/03/11 08:43:45;;;;;;;216.40;81.50;;;;;;;2.73;37.33;95972.55;1745005;82;21251;-75
2021/03/11 08:46:21;;;;;;;50.83;16.30;;;;;;;2.88;37.21;95962.81;1745639;81;21168;-72
2021/03/11 08:49:00;;;;;;;17.40;8.60;;;;;;;2.98;36.42;95960.81;1745421;82;21144;-74
2021/03/11 08:51:35;;;;;;;25.20;11.80;;;;;;;3.12;36.37;95961.02;1745386;82;21167;-71
2021/03/11 08:54:22;;;;;;;20.13;11.07;;;;;;;3.17;34.14;95958.50;1745661;82;21172;-69
2021/03/11 08:56:50;;;;;;;11.57;6.80;;;;;;;3.18;35.38;95952.45;1745322;81;21145;-73
2021/03/11 08:59:18;;;;;;;11.60;6.63;;;;;;;3.34;34.46;95967.89;1722704;82;21164;-69
2021/03/11 09:01:53;;;;;;;11.17;6.30;;;;;;;3.31;33.38;95963.51;1754641;82;21151;-70
2021/03/11 09:04:39;;;;;;;13.77;7.27;;;;;;;3.41;34.22;95959.31;1754603;81;21152;-69
2021/03/11 09:07:24;;;;;;;7.97;4.77;;;;;;;3.56;33.70;95962.58;1754651;81;21729;-71
2021/03/11 09:09:51;;;;;;;35.07;25.67;;;;;;;3.77;34.39;95955.03;1744156;82;21141;-70
2021/03/11 09:12:35;;;;;;;15.17;8.03;;;;;;;4.03;35.07;95950.16;1754709;81;21140;-70
2021/03/11 09:15:09;;;;;;;13.05;8.50;;;;;;;4.22;33.85;95951.24;1754736;81;21136;-72
2021/03/11 09:17:39;;;;;;;14.23;8.50;;;;;;;4.24;32.60;95938.22;1754509;82;21282;-73
2021/03/11 09:20:15;;;;;;;14.57;6.83;;;;;;;4.27;32.65;95936.94;1754644;82;21566;-71
2021/03/11 09:22:49;;;;;;;12.00;7.50;;;;;;;4.21;30.83;95933.84;1754597;81;21156;-70
2021/03/11 09:25:24;;;;;;;16.53;8.23;;;;;;;4.17;32.04;95941.17;1754948;82;21148;-68
2021/03/11 09:28:01;;;;;;;16.57;8.07;;;;;;;4.31;32.21;95940.05;1754867;82;21141;-68
2021/03/11 09:30:35;;;;;;;14.57;8.00;;;;;;;4.19;31.12;95932.06;1754847;82;21586;-71
2021/03/11 09:33:20;;;;;;;;;;;;;;;4.32;31.62;95941.34;1757154;81;21609;-70
2021/03/11 09:35:50;;;;;;;13.30;7.03;;;;;;;4.49;32.97;95932.83;1754791;81;20224;-75
2021/03/11 09:38:24;;;;;;;14.33;7.43;;;;;;;4.53;30.34;95939.38;1755043;81;21140;-71
2021/03/11 09:40:58;;;;;;;12.23;8.13;;;;;;;4.78;32.38;95929.17;1754773;82;21143;-70
2021/03/11 09:43:30;;;;;;;13.70;7.57;;;;;;;5.05;32.14;95932.47;1754750;82;21117;-67
2021/03/11 09:46:12;;;;;;;19.10;10.00;;;;;;;5.16;30.42;95929.48;1754670;82;21144;-64
2021/03/11 09:48:54;;;;;;;13.93;9.83;;;;;;;5.14;30.37;95931.65;1754983;82;21128;-65
2021/03/11 09:51:27;;;;;;;11.53;6.27;;;;;;;5.14;31.40;95934.27;1755272;81;21149;-68
2021/03/11 09:54:01;;;;;;;;;;;;;;;5.16;30.07;95926.88;1757297;82;21689;-71
2021/03/11 09:56:44;;;;;;;;;;;;;;;5.38;30.16;95932.27;1757567;82;20166;-69
2021/03/11 09:59:14;;;;;;;9.13;5.40;;;;;;;5.66;29.60;95928.52;1757599;81;20153;-68
2021/03/11 10:01:48;;;;;;;11.27;5.97;;;;;;;5.48;28.26;95928.85;1762550;81;21426;-66
2021/03/11 10:04:30;;;;;;;9.17;5.77;;;;;;;5.47;29.15;95934.97;1762611;81;21120;-66
2021/03/11 10:07:05;;;;;;;7.93;4.57;;;;;;;5.68;28.05;95936.83;1762514;81;21116;-67
2021/03/11 10:09:42;;;;;;;5.77;3.90;;;;;;;5.75;26.84;95940.38;1762698;81;21538;-67
2021/03/11 10:12:11;;;;;;;7.80;5.40;;;;;;;5.51;25.25;95948.94;1761743;81;21143;-67
2021/03/11 10:14:39;;;;;;;11.50;6.40;;;;;;;5.41;26.61;95944.06;1762649;81;21140;-67
2021/03/11 10:17:11;;;;;;;6.23;3.13;;;;;;;5.38;25.35;95942.74;1762865;81;21143;-68
2021/03/11 10:19:41;;;;;;;8.03;4.40;;;;;;;5.49;25.36;95941.50;1761061;81;21143;-68
2021/03/11 10:22:16;;;;;;;5.57;3.37;;;;;;;5.55;26.19;95953.34;1762289;81;21578;-67
2021/03/11 10:24:50;;;;;;;7.53;5.53;;;;;;;5.60;26.56;95947.25;1762817;81;21165;-67
2021/03/11 10:27:28;;;;;;;6.90;4.03;;;;;;;5.94;28.91;95947.47;1762544;81;21152;-67
2021/03/11 10:30:28;;;;;;;12.10;6.53;;;;;;;6.09;24.96;95938.81;1762603;81;21100;-68
2021/03/11 10:33:00;;;;;;;13.33;7.80;;;;;;;6.10;25.85;95939.67;1762360;81;21105;-67
2021/03/11 10:35:38;;;;;;;11.87;6.37;;;;;;;6.18;25.86;95936.67;1762606;81;21148;-67
2021/03/11 10:38:24;;;;;;;15.03;8.10;;;;;;;6.21;26.12;95936.69;1763113;81;21648;-67
2021/03/11 10:40:56;;;;;;;15.60;7.97;;;;;;;6.37;26.61;95945.02;1762780;81;21450;-67
2021/03/11 10:43:31;;;;;;;6.63;3.63;;;;;;;6.45;26.89;95935.47;1758525;81;21167;-67
2021/03/11 10:45:56;;;;;;;8.60;5.00;;;;;;;6.50;24.20;95937.66;1762032;81;21136;-67
2021/03/11 10:48:23;;;;;;;7.50;4.73;;;;;;;6.63;25.74;95929.83;1762456;81;21140;-67
2021/03/11 10:50:54;;;;;;;11.17;6.60;;;;;;;6.77;23.93;95929.39;1762380;81;21159;-68
2021/03/11 10:53:38;;;;;;;17.83;8.77;;;;;;;7.08;26.24;95926.38;1762580;81;21583;-67
2021/03/11 10:56:09;;;;;;;8.23;5.00;;;;;;;7.45;26.74;95922.41;1762605;81;21140;-68
2021/03/11 10:58:40;;;;;;;13.03;6.43;;;;;;;7.89;23.54;95909.64;1762561;81;21132;-67
2021/03/11 11:01:21;;;;;;;10.57;6.33;;;;;;;8.08;22.74;95911.74;1761703;81;21567;-67
2021/03/11 11:03:48;;;;;;;8.13;4.70;;;;;;;8.24;22.52;95904.24;1762232;81;21128;-68
2021/03/11 11:06:16;;;;;;;11.40;7.07;;;;;;;8.50;22.95;95899.77;1762769;81;21151;-68
2021/03/11 11:08:45;;;;;;;7.50;5.63;;;;;;;8.90;22.07;95916.17;1762661;81;21151;-67
2021/03/11 11:11:16;;;;;;;9.13;6.90;;;;;;;9.26;21.72;95903.16;1762495;81;21574;-68
2021/03/11 11:13:45;;;;;;;9.73;6.53;;;;;;;9.81;21.91;95902.22;1762652;81;21598;-68
2021/03/11 11:16:14;;;;;;;9.10;6.93;;;;;;;9.91;19.45;95895.95;1762709;81;21195;-68
2021/03/11 11:18:47;;;;;;;6.93;5.07;;;;;;;10.46;20.30;95886.50;1762425;81;21126;-68
2021/03/11 11:21:13;;;;;;;8.60;6.43;;;;;;;10.66;17.57;95883.59;1762322;81;21120;-68
2021/03/11 11:23:41;;;;;;;9.60;6.23;;;;;;;11.04;17.33;95877.76;1762503;81;21574;-68
2021/03/11 11:26:10;;;;;;;9.30;6.97;;;;;;;11.18;18.90;95872.23;1762467;81;21135;-68
2021/03/11 11:28:38;;;;;;;7.20;4.83;;;;;;;11.41;19.51;95863.46;1762470;81;21139;-68
2021/03/11 11:31:06;;;;;;;8.27;5.80;;;;;;;11.79;16.89;95853.09;1762372;81;21144;-68
2021/03/11 11:33:36;;;;;;;6.90;5.13;;;;;;;11.59;17.34;95841.14;1762299;81;21168;-68
2021/03/11 11:36:05;;;;;;;9.30;6.33;;;;;;;11.95;16.38;95835.21;1762535;81;21151;-68
2021/03/11 11:38:32;;;;;;;10.40;6.13;;;;;;;11.88;17.58;95830.48;1737165;81;21164;-68
2021/03/11 11:41:02;;;;;;;8.93;6.27;;;;;;;12.13;17.37;95830.40;1762719;81;21168;-68
2021/03/11 11:43:29;;;;;;;8.37;6.40;;;;;;;11.97;17.33;95826.34;1762788;81;21578;-68
2021/03/11 11:45:57;;;;;;;10.00;6.60;;;;;;;12.25;16.95;95826.63;1762335;81;21136;-68
2021/03/11 11:48:25;;;;;;;9.20;7.63;;;;;;;11.93;16.21;95819.36;1762409;81;21139;-68